Latest Weather Observations for Pallamana

IDS60801

Issued at 9:31 pm CST Tuesday 26 July 2016 (issued every 30 minutes, with the page automatically refreshed every 10 minutes)

About weather observations | Map of weather stations | Latest weather observations for SA | Other Formats
Station Details ID: 024584 Name: PALLAMANA AERODROME Lat: -35.06 Lon: 139.23 Height: 45.0 m
Data from the previous 72 hours. | See also: Recent months at Pallamana
Date/Time
CST
Temp
°C
App
Temp
°C
Dew
Point
°C
Rel
Hum
%
Delta-T
°C
Wind Press
QNH
hPa
Press
MSL
hPa
Rain since
9am
mm
Dir  Spd
km/h
Gust
km/h
Spd
kts
Gust
kts
26/09:30pm 11.8 3.0 3.8 58 3.6 WSW 39 57 21 31 1010.1 1010.2 3.0
26/09:23pm 11.5 4.3 5.0 64 3.0 WSW 32 50 17 27 1010.1 1010.2 3.0
26/09:00pm 11.0 4.7 5.8 70 2.4 W 28 41 15 22 1009.9 1010.0 3.0
26/08:30pm 11.3 3.6 5.5 67 2.7 WSW 35 52 19 28 1009.1 1009.2 3.0
26/08:24pm 11.2 4.3 6.6 73 2.2 W 32 52 17 28 1009.1 1009.2 3.0
26/08:00pm 11.5 4.7 6.7 72 2.3 W 32 44 17 24 1008.9 1009.0 3.0
26/07:51pm 11.3 5.3 7.1 75 2.0 W 28 56 15 30 1008.9 1009.0 3.0
26/07:49pm 11.3 5.3 7.1 75 2.0 W 28 56 15 30 1008.8 1008.9 3.0
26/07:30pm 10.7 6.1 8.0 83 1.3 WSW 22 32 12 17 1008.8 1008.9 3.0
26/07:00pm 10.8 6.7 8.6 86 1.1 W 20 30 11 16 1008.1 1008.2 3.0
26/06:42pm 11.0 5.0 8.8 86 1.1 WSW 30 44 16 24 1008.0 1008.1 2.8
26/06:30pm 11.4 5.6 7.9 79 1.7 WNW 28 44 15 24 1007.9 1008.0 2.2
26/06:17pm 11.5 5.6 7.4 76 2.0 WNW 28 46 15 25 1007.3 1007.4 2.2
26/06:15pm 11.4 5.5 7.5 77 1.9 WNW 28 46 15 25 1007.3 1007.4 2.2
26/06:00pm 11.1 4.5 8.7 85 1.2 NW 33 44 18 24 1007.4 1007.5 2.2
26/05:53pm 11.2 4.2 8.4 83 1.4 NW 35 43 19 23 1007.0 1007.1 2.0
26/05:40pm 10.8 4.4 8.4 85 1.2 NNW 32 44 17 24 1006.6 1006.7 1.4
26/05:30pm 10.8 4.3 8.1 83 1.3 NNW 32 44 17 24 1006.7 1006.8 1.0
26/05:29pm 10.7 4.2 8.3 85 1.2 NNW 32 41 17 22 1006.7 1006.8 1.0
26/05:00pm 11.4 4.6 7.0 74 2.1 NNW 32 50 17 27 1007.1 1007.2 0.2
26/04:58pm 11.4 5.4 7.0 74 2.1 NNW 28 46 15 25 1007.1 1007.2 0.2
26/04:30pm 11.5 4.4 6.2 70 2.5 NW 33 44 18 24 1007.6 1007.7 0.0
26/04:02pm 11.3 4.2 6.2 71 2.4 NNW 33 52 18 28 1009.0 1009.1 0.0
26/04:00pm 11.4 4.5 6.6 72 2.3 NNW 32 44 17 24 1008.9 1009.0 0.0
26/03:30pm 11.7 5.7 6.9 72 2.3 NNW 28 37 15 20 1009.1 1009.2 0.0
26/03:00pm 11.9 5.6 5.9 66 2.8 NW 28 44 15 24 1010.1 1010.2 0.0
26/02:36pm 13.1 6.8 5.9 61 3.4 NNW 28 48 15 26 1010.4 1010.5 0.0
26/02:30pm 12.7 7.3 6.2 64 3.1 NNW 24 37 13 20 1010.6 1010.7 0.0
26/02:00pm 13.4 7.4 5.3 58 3.8 NW 26 44 14 24 1011.3 1011.3 0.0
26/01:30pm 12.2 5.5 3.4 55 3.9 NW 28 41 15 22 1011.8 1011.8 0.0
26/01:08pm 12.2 5.0 2.9 53 4.1 NW 30 48 16 26 1012.1 1012.1 0.0
26/01:00pm 12.1 3.8 2.4 51 4.2 NW 35 48 19 26 1012.3 1012.3 0.0
26/12:30pm 12.2 5.9 3.7 56 3.8 NW 26 35 14 19 1013.1 1013.1 0.0
26/12:00pm 11.8 7.0 4.8 62 3.2 NNW 19 26 10 14 1013.7 1013.7 0.0
26/11:30am 10.9 5.9 4.7 65 2.8 NNW 20 28 11 15 1014.6 1014.6 0.0
26/11:00am 10.0 5.9 6.1 77 1.8 NNW 17 22 9 12 1014.8 1014.8 0.0
26/10:30am 9.9 4.2 6.7 80 1.5 N 26 32 14 17 1015.1 1015.1 0.0
26/10:00am 10.2 5.9 6.8 79 1.6 N 19 24 10 13 1015.2 1015.2 0.0
26/09:30am 10.1 5.5 6.7 79 1.6 NNW 20 26 11 14 1015.5 1015.5 0.0
26/09:00am 8.1 3.6 6.1 87 0.9 N 19 20 10 11 1015.2 1015.2 0.6
26/08:30am 6.2 2.9 4.8 91 0.6 N 11 15 6 8 1015.6 1015.6 0.6
26/08:00am 4.1 1.3 3.1 93 0.4 N 7 7 4 4 1015.8 1015.8 0.6
26/07:30am 4.3 0.3 3.1 92 0.5 N 13 15 7 8 1016.0 1016.0 0.6
26/07:00am 4.9 1.0 3.5 91 0.6 NNW 13 15 7 8 1016.0 1016.0 0.6
26/06:30am 5.2 1.8 3.8 91 0.6 N 11 13 6 7 1015.8 1015.8 0.6
26/06:00am 7.8 5.0 5.1 83 1.2 WNW 9 11 5 6 1015.7 1015.7 0.6
26/05:30am 7.6 4.4 5.1 84 1.1 W 11 13 6 7 1015.7 1015.7 0.6
26/05:00am 7.2 4.3 4.9 85 1.0 W 9 11 5 6 1015.6 1015.6 0.6
26/04:30am 8.1 4.5 5.2 82 1.3 WNW 13 17 7 9 1015.5 1015.5 0.6
26/04:00am 8.0 4.0 5.1 82 1.3 WNW 15 20 8 11 1015.6 1015.6 0.6
26/03:30am 7.3 4.4 4.8 84 1.1 WNW 9 11 5 6 1015.9 1015.9 0.4
26/03:00am 7.4 4.1 4.7 83 1.2 WNW 11 15 6 8 1015.9 1015.9 0.4
26/02:30am 8.0 3.9 4.6 79 1.5 W 15 20 8 11 1016.3 1016.3 0.4
26/02:00am 5.6 2.4 2.9 83 1.1 NW 9 11 5 6 1016.2 1016.2 0.4
26/01:30am 7.0 3.5 3.5 78 1.5 WNW 11 15 6 8 1016.4 1016.4 0.4
26/01:00am 7.0 3.5 3.5 78 1.5 WNW 11 15 6 8 1016.4 1016.4 0.4
26/12:30am 6.7 3.1 2.9 77 1.6 NW 11 13 6 7 1016.2 1016.2 0.4
26/12:00am 6.1 2.4 2.2 76 1.6 NW 11 17 6 9 1016.4 1016.4 0.4
 
Date/Time
CST
Temp
°C
App
Temp
°C
Dew
Point
°C
Rel
Hum
%
Delta-T
°C
Wind Press
QNH
hPa
Press
MSL
hPa
Rain since
9am
mm
Dir  Spd
km/h
Gust
km/h
Spd
kts
Gust
kts
25/11:30pm 5.0 1.7 2.5 84 1.0 N 9 11 5 6 1016.6 1016.6 0.4
25/11:00pm 5.8 2.5 2.4 79 1.4 N 9 13 5 7 1016.6 1016.6 0.4
25/10:30pm 8.0 4.7 2.5 68 2.3 W 9 13 5 7 1016.2 1016.2 0.4
25/10:00pm 8.7 4.6 2.5 65 2.6 W 13 17 7 9 1016.0 1016.0 0.4
25/09:30pm 9.4 4.2 2.6 62 2.9 W 19 24 10 13 1016.1 1016.1 0.4
25/09:00pm 9.5 5.1 2.7 62 2.9 W 15 24 8 13 1015.8 1015.8 0.4
25/08:30pm 9.7 5.0 3.2 64 2.8 WSW 17 22 9 12 1015.4 1015.4 0.4
25/08:00pm 9.7 4.1 3.5 65 2.7 WSW 22 32 12 17 1014.9 1014.9 0.4
25/07:30pm 10.1 4.8 5.0 70 2.3 WSW 22 33 12 18 1014.4 1014.4 0.4
25/07:00pm 10.5 4.3 6.2 75 2.0 W 28 37 15 20 1014.0 1014.0 0.4
25/06:30pm 10.2 4.6 7.0 80 1.5 WSW 26 33 14 18 1013.4 1013.4 0.4
25/06:00pm 11.1 4.0 6.2 72 2.3 W 33 46 18 25 1012.9 1012.9 0.4
25/05:30pm 11.2 4.4 7.0 75 2.0 WSW 32 43 17 23 1012.3 1012.3 0.4
25/05:19pm 11.1 4.6 8.0 81 1.5 WSW 32 44 17 24 1012.2 1012.2 0.4
25/05:01pm 11.3 5.5 9.3 87 1.0 WSW 30 39 16 21 1012.0 1012.0 0.2
25/05:00pm 11.3 5.5 9.3 87 1.0 WSW 30 39 16 21 1012.0 1012.0 0.2
25/04:30pm 12.1 4.8 8.9 81 1.6 WSW 37 50 20 27 1011.3 1011.3 0.0
25/04:00pm 13.0 4.5 8.6 74 2.2 W 43 61 23 33 1010.7 1010.8 0.0
25/03:30pm 13.7 6.8 9.0 73 2.4 WNW 35 57 19 31 1009.8 1009.9 0.0
25/03:00pm 14.2 5.4 8.2 67 3.0 WNW 44 70 24 38 1010.2 1010.3 0.0
25/02:30pm 14.2 7.5 8.2 67 3.0 WNW 33 59 18 32 1010.0 1010.1 0.0
25/02:00pm 14.4 8.0 8.7 68 2.9 WNW 32 54 17 29 1010.4 1010.5 0.0
25/01:30pm 14.4 6.6 8.2 66 3.1 WNW 39 59 21 32 1010.6 1010.7 0.0
25/01:19pm 14.2 7.0 7.5 64 3.3 WNW 35 56 19 30 1010.8 1010.9 0.0
25/01:00pm 14.7 9.2 7.7 63 3.5 WNW 26 44 14 24 1011.6 1011.6 0.0
25/12:30pm 14.2 8.6 7.3 63 3.4 NW 26 43 14 23 1012.3 1012.3 0.0
25/12:16pm 13.6 6.8 6.8 63 3.3 WNW 32 50 17 27 1012.6 1012.6 0.0
25/12:00pm 13.6 7.6 7.0 64 3.2 NW 28 44 15 24 1013.0 1013.0 0.0
25/11:30am 13.7 7.7 6.9 63 3.3 NW 28 43 15 23 1013.3 1013.3 0.0
25/11:09am 13.6 5.8 6.5 62 3.4 NW 37 56 20 30 1013.2 1013.2 0.0
25/11:00am 13.4 5.6 6.5 63 3.3 NW 37 54 20 29 1013.5 1013.5 0.0
25/10:37am 12.9 5.0 6.2 64 3.2 NW 37 57 20 31 1013.6 1013.6 0.0
25/10:30am 12.9 5.0 6.2 64 3.2 WNW 37 54 20 29 1013.6 1013.6 0.0
25/10:21am 12.8 5.8 6.0 63 3.2 WNW 32 50 17 27 1013.9 1013.9 0.0
25/10:00am 12.6 6.7 6.0 64 3.1 NW 26 41 14 22 1014.4 1014.4 0.0
25/09:30am 12.2 7.2 6.3 67 2.8 NW 22 32 12 17 1014.7 1014.7 0.0
25/09:00am 11.6 7.0 6.5 71 2.4 NW 20 32 11 17 1014.4 1014.4 5.6
25/08:30am 10.4 7.4 7.5 82 1.4 NW 13 17 7 9 1014.5 1014.5 5.6
25/08:00am 8.5 5.9 6.1 85 1.1 NW 9 13 5 7 1014.5 1014.5 5.6
25/07:30am 8.4 5.2 5.3 81 1.4 NNW 11 13 6 7 1014.5 1014.5 5.6
25/07:00am 8.5 4.6 5.4 81 1.4 NNW 15 20 8 11 1014.5 1014.5 5.6
25/06:30am 7.4 4.6 5.1 85 1.0 NW 9 13 5 7 1014.6 1014.6 5.6
25/06:00am 6.9 4.0 4.6 85 1.0 NW 9 13 5 7 1014.6 1014.6 5.6
25/05:30am 7.9 4.3 5.0 82 1.3 WNW 13 19 7 10 1014.5 1014.5 5.6
25/05:00am 7.0 3.3 4.2 82 1.2 NW 13 15 7 8 1014.3 1014.3 5.6
25/04:30am 6.5 3.5 3.9 83 1.1 WNW 9 13 5 7 1014.2 1014.2 5.6
25/04:00am 7.8 4.8 4.1 77 1.6 WNW 9 11 5 6 1014.3 1014.3 5.6
25/03:30am 8.3 5.4 4.7 78 1.6 W 9 11 5 6 1014.2 1014.2 5.6
25/03:00am 8.9 5.3 4.9 76 1.8 W 13 17 7 9 1014.3 1014.3 5.6
25/02:30am 9.4 5.4 4.9 73 2.0 W 15 20 8 11 1014.2 1014.2 5.6
25/02:00am 9.6 4.8 4.9 72 2.1 W 19 26 10 14 1014.1 1014.1 5.6
25/01:30am 9.6 5.2 4.9 72 2.1 W 17 24 9 13 1013.8 1013.8 5.6
25/01:00am 9.9 4.2 4.8 70 2.3 W 24 32 13 17 1013.4 1013.4 5.6
25/12:30am 10.0 4.3 4.9 70 2.3 W 24 35 13 19 1013.1 1013.1 5.6
25/12:00am 9.7 5.1 5.5 75 1.9 W 19 26 10 14 1012.9 1012.9 5.6
 
Date/Time
CST
Temp
°C
App
Temp
°C
Dew
Point
°C
Rel
Hum
%
Delta-T
°C
Wind Press
QNH
hPa
Press
MSL
hPa
Rain since
9am
mm
Dir  Spd
km/h
Gust
km/h
Spd
kts
Gust
kts
24/11:30pm 9.8 5.0 5.4 74 2.0 W 20 30 11 16 1012.7 1012.7 5.6
24/11:00pm 10.2 4.2 5.4 72 2.2 W 26 37 14 20 1012.4 1012.4 5.6
24/10:30pm 9.6 5.1 6.1 79 1.6 W 19 26 10 14 1012.0 1012.0 5.6
24/10:00pm 10.1 4.7 6.5 78 1.7 W 24 39 13 21 1011.5 1011.5 5.6
24/09:49pm 10.4 4.2 6.3 76 1.9 W 28 46 15 25 1011.5 1011.5 5.6
24/09:30pm 10.5 4.4 6.5 76 1.9 W 28 44 15 24 1011.3 1011.3 5.6
24/09:05pm 10.6 4.5 6.6 76 1.9 W 28 52 15 28 1010.7 1010.8 5.6
24/09:00pm 10.6 4.5 6.6 76 1.9 W 28 39 15 21 1010.7 1010.8 5.6
24/08:30pm 10.0 3.2 7.0 81 1.4 W 32 54 17 29 1010.5 1010.6 5.6
24/08:12pm 10.1 4.2 7.4 83 1.3 W 28 46 15 25 1010.4 1010.5 5.4
24/08:03pm 10.4 3.0 6.8 78 1.7 W 35 50 19 27 1010.0 1010.1 5.4
24/08:00pm 10.3 3.5 6.9 79 1.6 W 32 50 17 27 1010.0 1010.1 5.4
24/07:49pm 9.9 3.6 7.6 85 1.1 W 30 48 16 26 1009.8 1009.9 5.4
24/07:37pm 9.9 3.6 7.6 85 1.1 W 30 41 16 22 1009.7 1009.8 4.4
24/07:30pm 10.1 4.2 7.4 83 1.3 W 28 41 15 22 1009.5 1009.6 4.4
24/07:27pm 10.0 4.1 7.5 84 1.2 W 28 44 15 24 1009.4 1009.5 4.4
24/07:08pm 10.1 4.6 7.6 84 1.2 W 26 41 14 22 1009.2 1009.3 3.6
24/07:00pm 10.1 5.0 7.6 84 1.2 W 24 39 13 21 1008.9 1009.0 3.2
24/06:49pm 10.2 3.5 7.3 82 1.4 WNW 32 56 17 30 1008.8 1008.9 3.2
24/06:45pm 10.1 3.8 7.4 83 1.3 WNW 30 48 16 26 1008.7 1008.8 3.0
24/06:39pm 10.1 3.2 7.4 83 1.3 W 33 46 18 25 1008.5 1008.6 3.0
24/06:30pm 10.3 2.9 6.9 79 1.6 W 35 57 19 31 1008.5 1008.6 2.2
24/06:00pm 10.8 1.7 6.1 73 2.2 WNW 43 69 23 37 1007.7 1007.8 1.2
24/05:30pm 11.5 2.9 4.7 63 3.1 WNW 39 61 21 33 1007.1 1007.2 0.8
24/05:05pm 11.1 2.9 5.0 66 2.8 WNW 37 56 20 30 1006.8 1006.9 0.8
24/05:00pm 10.8 3.5 5.4 69 2.5 WNW 33 48 18 26 1006.8 1006.9 0.8
24/04:30pm 11.7 4.2 4.2 60 3.4 WNW 33 56 18 30 1006.9 1007.0 0.8
24/04:00pm 11.4 3.9 4.6 63 3.1 WNW 33 56 18 30 1006.8 1006.9 0.8
24/03:30pm 12.0 4.0 4.0 58 3.6 WNW 35 54 19 29 1006.5 1006.6 0.8
24/03:04pm 12.1 4.4 3.6 56 3.8 WNW 33 52 18 28 1006.6 1006.7 0.8
24/03:00pm 12.2 4.5 3.5 55 3.9 WNW 33 50 18 27 1006.7 1006.8 0.8
24/02:30pm 12.4 4.9 3.7 55 3.9 WNW 32 50 17 27 1006.6 1006.7 0.8
24/02:00pm 10.6 3.0 5.6 71 2.3 WNW 35 63 19 34 1007.1 1007.2 0.8
24/01:30pm 10.3 3.1 5.8 73 2.1 WNW 33 52 18 28 1006.7 1006.8 0.6
24/01:03pm 12.1 4.7 4.9 61 3.3 WNW 33 52 18 28 1007.1 1007.2 0.6
24/01:00pm 11.6 3.7 4.3 61 3.3 WNW 35 52 19 28 1006.9 1007.0 0.6
24/12:30pm 10.8 2.2 4.4 64 2.9 WNW 39 57 21 31 1007.1 1007.2 0.6
24/12:18pm 11.2 4.1 5.6 68 2.6 NW 32 52 17 28 1007.4 1007.5 0.6
24/12:00pm 10.7 3.6 5.3 69 2.5 WNW 32 44 17 24 1007.6 1007.7 0.6
24/11:30am 8.9 3.2 4.9 76 1.8 NW 24 35 13 19 1008.2 1008.3 0.6
24/11:00am 7.7 -0.1 4.8 82 1.3 WNW 35 61 19 33 1008.6 1008.7 0.4
24/10:56am 8.2 -1.2 4.6 78 1.6 WNW 43 61 23 33 1008.7 1008.8 0.4
24/10:54am 8.4 -1.0 4.6 77 1.7 NW 43 61 23 33 1008.5 1008.6 0.4
24/10:30am 9.4 2.3 5.5 76 1.8 NW 32 50 17 27 1008.2 1008.3 0.2
24/10:04am 10.3 2.5 5.0 69 2.4 NNW 35 61 19 33 1008.4 1008.5 0.0
24/10:00am 10.7 3.2 4.7 66 2.7 NNW 33 48 18 26 1008.3 1008.4 0.0
24/09:30am 11.1 4.5 4.2 62 3.1 N 28 39 15 21 1008.0 1008.1 0.0
24/09:00am 10.6 3.0 5.6 71 2.3 NNE 35 48 19 26 1007.9 1008.0 0.0
24/08:30am 10.0 3.8 6.1 77 1.8 NNE 28 35 15 19 1008.2 1008.3 0.0
24/08:00am 6.7 0.9 4.2 84 1.1 NNE 24 30 13 16 1008.6 1008.7 0.0
24/07:30am 5.9 2.1 3.8 86 0.9 N 13 20 7 11 1009.0 1009.1 0.0
24/07:00am 4.8 0.5 3.1 89 0.7 N 15 19 8 10 1009.1 1009.2 0.0
24/06:30am 5.1 2.9 3.2 87 0.8 NNE 4 9 2 5 1009.4 1009.5 0.0
24/06:00am 5.0 0.4 3.6 91 0.6 N 17 19 9 10 1009.6 1009.7 0.0
24/05:30am 5.1 0.1 3.4 89 0.7 N 19 20 10 11 1009.8 1009.9 0.0
24/05:00am 5.5 0.9 3.6 87 0.8 N 17 20 9 11 1010.3 1010.4 0.0
24/04:30am 5.4 0.8 3.5 87 0.8 N 17 20 9 11 1010.1 1010.2 0.0
24/04:00am 3.5 0.2 2.5 93 0.4 N 9 11 5 6 1010.8 1010.9 0.0
24/03:30am 4.4 0.1 3.2 92 0.5 N 15 17 8 9 1011.4 1011.4 0.0
24/03:00am 5.3 0.1 3.6 89 0.7 N 20 24 11 13 1011.8 1011.8 0.0
24/02:30am 3.9 0.6 2.7 92 0.5 NNW 9 13 5 7 1012.4 1012.4 0.0
24/02:00am 4.4 0.8 3.2 92 0.5 N 11 17 6 9 1013.0 1013.0 0.0
24/01:30am 5.0 1.8 3.3 89 0.7 N 9 11 5 6 1013.5 1013.5 0.0
24/01:00am 7.0 3.3 4.2 82 1.2 N 13 20 7 11 1013.7 1013.7 0.0
24/12:30am 7.4 2.6 4.4 81 1.3 N 19 22 10 12 1014.2 1014.2 0.0
24/12:00am 7.2 2.4 4.4 82 1.2 NNW 19 24 10 13 1014.7 1014.7 0.0
 
Date/Time
CST
Temp
°C
App
Temp
°C
Dew
Point
°C
Rel
Hum
%
Delta-T
°C
Wind Press
QNH
hPa
Press
MSL
hPa
Rain since
9am
mm
Dir  Spd
km/h
Gust
km/h
Spd
kts
Gust
kts
23/11:30pm 5.7 1.9 3.8 87 0.8 NNW 13 17 7 9 1014.9 1014.9 0.0
23/11:00pm 5.3 1.8 3.6 89 0.7 N 11 15 6 8 1015.0 1015.0 0.0
23/10:30pm 4.8 1.3 3.4 91 0.6 N 11 13 6 7 1015.2 1015.2 0.0
23/10:00pm 6.6 3.3 4.3 85 1.0 WNW 11 13 6 7 1015.1 1015.1 0.0

Other Formats:

Comma delimited format used in spreadsheet applications
http://www.bom.gov.au/fwo/IDS60801/IDS60801.95818.axf

JavaScript Object Notation format (JSON) in row-major order
http://www.bom.gov.au/fwo/IDS60801/IDS60801.95818.json